Tampa, Florida
Traffic Map
Current Weather Conditions
Tampa, Florida
Few Clouds
Few Clouds
72°
Feels Like: 72°
Wind Chill: 72° Ceiling: Unl
Heat Index: 72° Visibility: 10mi
Dew Point: 64° Wind: 3mph
Humidity: 76% Direction: 60° (ENE)
Pressure: 30.26in Gusts: 0mph
Raw Report DataKTPA 280453Z 06003KT 10SM FEW050 22/18 A3026 RMK AO2 SLP246 T02220178 403000156
Traffic Incident Summary
Active as of:
Severity:
Category:
InformationThere was an issue retrieving the traffic information for this location. Please try a different location or try again shortly.
Advertisements
Track Severe Weather on mobile